Time;durP1;ratioP1;P1;durP2;ratioP2;P2;SDS_P1;SDS_P2;PMS_P1;PMS_P2;Temp;Humidity;BMP_temperature;BMP_pressure;BME280_temperature;BME280_humidity;BME280_pressure;Samples;Min_cycle;Max_cycle;Signal;HPM_P1;HPM_P2
2022/03/11 00:01:16;;;;;;;12.82;7.25;;;;;;;-6.26;85.61;95701.25;5106855;27;20521;-48
2022/03/11 00:03:43;;;;;;;7.38;4.90;;;;;;;-6.25;85.25;95691.94;5106586;27;20039;-48
2022/03/11 00:06:10;;;;;;;8.88;5.40;;;;;;;-6.28;85.03;95692.97;5106271;27;20043;-47
2022/03/11 00:08:37;;;;;;;10.80;6.55;;;;;;;-6.36;85.62;95688.41;5107198;27;20059;-47
2022/03/11 00:11:05;;;;;;;10.43;5.45;;;;;;;-6.24;85.38;95684.22;5105819;27;20039;-48
2022/03/11 00:13:32;;;;;;;9.25;4.70;;;;;;;-6.30;85.61;95688.91;5105769;27;20060;-47
2022/03/11 00:15:58;;;;;;;13.43;5.43;;;;;;;-6.24;84.90;95685.94;5109397;27;20059;-47
2022/03/11 00:18:25;;;;;;;10.68;5.28;;;;;;;-6.28;84.58;95682.81;5106690;27;20160;-48
2022/03/11 00:20:52;;;;;;;8.23;4.43;;;;;;;-6.32;84.40;95675.53;5110730;27;20051;-49
2022/03/11 00:23:19;;;;;;;10.32;4.38;;;;;;;-6.32;84.91;95686.47;5107241;27;20036;-49
2022/03/11 00:25:46;;;;;;;12.15;5.10;;;;;;;-6.35;84.60;95682.44;5110983;27;20058;-49
2022/03/11 00:28:13;;;;;;;6.38;4.75;;;;;;;-6.37;84.56;95679.19;5105424;28;20520;-47
2022/03/11 00:30:41;;;;;;;7.68;4.38;;;;;;;-6.35;84.74;95679.09;5109479;27;20047;-52
2022/03/11 00:33:08;;;;;;;8.45;4.55;;;;;;;-6.36;85.18;95670.66;5106356;28;20040;-48
2022/03/11 00:35:35;;;;;;;7.57;4.53;;;;;;;-6.38;85.56;95677.56;5110490;28;20058;-48
2022/03/11 00:38:02;;;;;;;5.95;3.20;;;;;;;-6.47;85.86;95673.13;5110997;28;20130;-47
2022/03/11 00:40:29;;;;;;;9.15;3.85;;;;;;;-6.50;86.61;95668.25;5108185;28;20047;-49
2022/03/11 00:42:56;;;;;;;7.63;4.53;;;;;;;-6.47;87.38;95672.31;5110887;28;20039;-47
2022/03/11 00:45:22;;;;;;;10.25;4.28;;;;;;;-6.43;87.66;95659.31;5106624;28;20043;-48
2022/03/11 00:47:49;;;;;;;7.53;3.75;;;;;;;-6.48;88.26;95666.47;5110402;28;20062;-48
2022/03/11 00:50:16;;;;;;;10.18;4.65;;;;;;;-6.47;88.12;95663.00;5109879;28;20046;-48
2022/03/11 00:52:43;;;;;;;9.43;4.55;;;;;;;-6.44;87.67;95657.72;5106930;28;20081;-48
2022/03/11 00:55:10;;;;;;;17.30;7.00;;;;;;;-6.38;87.67;95667.41;5106947;28;20043;-48
2022/03/11 00:57:38;;;;;;;12.25;6.57;;;;;;;-6.40;88.17;95665.91;5107132;28;20040;-49
2022/03/11 01:00:06;;;;;;;12.60;6.95;;;;;;;-6.42;88.84;95671.09;5109140;28;20172;-49
2022/03/11 01:02:38;;;;;;;18.40;8.90;;;;;;;-6.37;88.92;95663.97;5107257;28;20039;-48
2022/03/11 01:05:07;;;;;;;16.23;8.52;;;;;;;-6.39;88.59;95670.88;5113598;28;20071;-47
2022/03/11 01:07:35;;;;;;;12.00;6.15;;;;;;;-6.46;88.32;95667.16;5107382;28;20039;-50
2022/03/11 01:10:03;;;;;;;10.07;5.57;;;;;;;-6.46;88.28;95673.94;5107062;28;20116;-47
2022/03/11 01:12:29;;;;;;;9.00;4.97;;;;;;;-6.50;88.22;95673.31;5109081;28;20039;-48
2022/03/11 01:14:56;;;;;;;9.20;5.00;;;;;;;-6.55;87.84;95661.00;5108019;28;20055;-47
2022/03/11 01:17:23;;;;;;;10.52;5.07;;;;;;;-6.56;87.37;95668.69;5112673;28;20039;-48
2022/03/11 01:19:50;;;;;;;8.15;5.45;;;;;;;-6.62;87.12;95679.25;5106288;28;20480;-47
2022/03/11 01:22:17;;;;;;;6.70;3.83;;;;;;;-6.70;86.94;95671.34;5105857;28;20047;-49
2022/03/11 01:24:44;;;;;;;5.28;2.83;;;;;;;-6.73;86.71;95669.84;5106684;28;21040;-48
2022/03/11 01:27:11;;;;;;;7.65;3.38;;;;;;;-6.79;86.60;95671.09;5106075;28;20039;-48
2022/03/11 01:29:38;;;;;;;4.63;2.25;;;;;;;-6.84;86.27;95665.50;5109708;28;20404;-48
2022/03/11 01:32:05;;;;;;;7.50;3.63;;;;;;;-6.91;86.54;95664.31;5109391;27;20488;-47
2022/03/11 01:34:32;;;;;;;5.30;3.65;;;;;;;-6.89;86.68;95661.69;5110678;27;20537;-49
2022/03/11 01:36:58;;;;;;;6.22;3.63;;;;;;;-6.93;86.80;95668.66;5113251;27;20051;-47
2022/03/11 01:39:25;;;;;;;5.47;3.50;;;;;;;-6.94;87.38;95669.56;5113303;27;20048;-48
2022/03/11 01:41:52;;;;;;;8.77;4.95;;;;;;;-7.21;87.78;95637.56;5113789;27;20048;-48
2022/03/11 01:44:25;;;;;;;9.35;4.72;;;;;;;-7.05;88.73;95661.88;5109842;27;20101;-47
2022/03/11 01:46:53;;;;;;;9.90;3.65;;;;;;;-7.09;89.29;95665.50;5109594;27;20036;-47
2022/03/11 01:49:20;;;;;;;8.75;4.70;;;;;;;-7.10;89.17;95664.72;5110989;27;20750;-49
2022/03/11 01:51:47;;;;;;;10.90;5.53;;;;;;;-7.19;89.58;95661.06;5110073;27;20052;-48
2022/03/11 01:54:14;;;;;;;11.60;4.53;;;;;;;-7.20;90.22;95659.47;5109754;27;20052;-47
2022/03/11 01:56:41;;;;;;;6.05;3.95;;;;;;;-7.16;90.45;95665.94;5110092;27;20047;-48
2022/03/11 01:59:11;;;;;;;7.65;4.63;;;;;;;-7.18;90.94;95656.81;5111013;27;20092;-48
2022/03/11 02:01:38;;;;;;;4.70;3.13;;;;;;;-7.22;90.84;95663.81;5119461;27;20035;-48
2022/03/11 02:04:05;;;;;;;10.27;5.45;;;;;;;-7.22;91.17;95666.34;5113126;27;20049;-47
2022/03/11 02:06:33;;;;;;;10.52;3.72;;;;;;;-7.26;90.87;95669.97;5114961;27;20049;-47
2022/03/11 02:09:01;;;;;;;10.63;5.70;;;;;;;-7.27;91.13;95663.31;5109445;27;20035;-47
2022/03/11 02:11:29;;;;;;;13.57;6.93;;;;;;;-7.23;90.76;95664.72;5114997;27;20043;-47
2022/03/11 02:14:00;;;;;;;12.65;7.00;;;;;;;-7.29;90.96;95665.13;5113405;27;20047;-47
2022/03/11 02:16:32;;;;;;;13.23;6.13;;;;;;;-7.28;91.15;95666.72;5110926;27;20512;-47
2022/03/11 02:19:00;;;;;;;16.17;8.52;;;;;;;-7.37;90.97;95655.50;5108910;27;20103;-47
2022/03/11 02:21:27;;;;;;;18.73;9.90;;;;;;;-7.26;90.71;95654.78;5108566;27;20126;-48
2022/03/11 02:23:56;;;;;;;12.70;8.25;;;;;;;-7.24;90.27;95658.03;5109979;27;20509;-48
2022/03/11 02:26:26;;;;;;;14.98;7.40;;;;;;;-7.21;90.27;95667.16;5108738;27;20495;-48
2022/03/11 02:28:54;;;;;;;8.98;5.10;;;;;;;-7.24;90.21;95662.28;5109768;27;20409;-47
2022/03/11 02:31:24;;;;;;;11.68;5.05;;;;;;;-7.25;90.27;95666.53;5110187;27;20047;-49
2022/03/11 02:33:51;;;;;;;9.18;5.55;;;;;;;-7.41;89.90;95650.75;5108298;27;20069;-47
2022/03/11 02:36:18;;;;;;;11.40;6.60;;;;;;;-7.33;90.21;95666.22;5119829;27;20043;-47
2022/03/11 02:38:45;;;;;;;6.63;4.13;;;;;;;-7.41;90.56;95674.31;5108783;27;20047;-49
2022/03/11 02:41:12;;;;;;;8.15;4.45;;;;;;;-7.48;90.96;95662.19;5109406;27;20053;-49
2022/03/11 02:43:41;;;;;;;6.13;3.88;;;;;;;-7.54;90.79;95666.72;5110818;27;20142;-47
2022/03/11 02:46:09;;;;;;;14.15;4.15;;;;;;;-7.70;92.04;95663.56;5110032;27;20081;-47
2022/03/11 02:48:37;;;;;;;4.30;3.28;;;;;;;-7.81;93.86;95676.06;5109618;27;20032;-47
2022/03/11 02:51:04;;;;;;;37.03;19.98;;;;;;;-7.68;93.21;95672.66;5107535;27;20063;-47
2022/03/11 02:53:31;;;;;;;12.43;8.10;;;;;;;-7.74;92.75;95670.53;5108265;27;20044;-48
2022/03/11 02:55:59;;;;;;;18.85;8.57;;;;;;;-7.72;93.03;95678.03;5108459;27;20652;-47
2022/03/11 02:58:26;;;;;;;6.47;4.63;;;;;;;-7.82;93.62;95687.09;5109514;27;20084;-47
2022/03/11 03:00:53;;;;;;;7.85;4.53;;;;;;;-7.89;94.06;95679.09;5108281;27;20032;-48
2022/03/11 03:03:20;;;;;;;9.82;4.82;;;;;;;-7.90;93.81;95675.75;5112782;27;20475;-48
2022/03/11 03:05:47;;;;;;;11.25;5.05;;;;;;;-7.88;93.54;95679.00;5098730;28;20048;-47
2022/03/11 03:08:13;;;;;;;8.32;4.82;;;;;;;-7.92;93.49;95677.56;5110446;27;20894;-47
2022/03/11 03:10:40;;;;;;;9.73;6.15;;;;;;;-7.90;93.38;95680.81;5110814;27;20052;-47
2022/03/11 03:13:07;;;;;;;16.08;4.90;;;;;;;-7.95;93.50;95682.81;5107773;27;20043;-48
2022/03/11 03:15:36;;;;;;;11.57;6.55;;;;;;;-7.99;94.04;95686.44;5112602;27;20183;-49
2022/03/11 03:18:02;;;;;;;13.15;6.32;;;;;;;-8.04;94.70;95683.41;5108082;27;20039;-48
2022/03/11 03:20:29;;;;;;;10.40;6.43;;;;;;;-8.21;96.08;95691.19;5108378;27;20122;-49
2022/03/11 03:22:56;;;;;;;18.10;9.70;;;;;;;-8.18;96.33;95691.03;5109564;27;20075;-47
2022/03/11 03:25:24;;;;;;;11.77;6.13;;;;;;;-8.29;96.58;95679.84;5108012;27;20046;-47
2022/03/11 03:27:51;;;;;;;34.20;17.30;;;;;;;-8.18;95.73;95696.06;5107633;27;20047;-48
2022/03/11 03:30:19;;;;;;;19.52;7.22;;;;;;;-8.31;95.13;95691.78;5107875;27;20035;-47
2022/03/11 03:32:45;;;;;;;7.50;4.03;;;;;;;-8.52;94.73;95693.09;5108500;27;20055;-47
2022/03/11 03:35:12;;;;;;;9.50;3.65;;;;;;;-8.72;94.20;95695.13;5108678;27;20500;-48
2022/03/11 03:37:39;;;;;;;10.50;7.47;;;;;;;-8.81;94.62;95698.19;5115151;27;20054;-47
2022/03/11 03:40:08;;;;;;;9.30;5.47;;;;;;;-8.91;95.41;95697.94;5115366;27;20036;-47
2022/03/11 03:42:35;;;;;;;10.27;6.03;;;;;;;-9.00;95.81;95697.66;5108836;27;20435;-47
2022/03/11 03:45:03;;;;;;;13.63;6.72;;;;;;;-9.13;97.18;95700.88;5109235;27;20867;-47
2022/03/11 03:47:30;;;;;;;13.23;7.03;;;;;;;-9.15;98.03;95702.69;5106959;27;20546;-47
2022/03/11 03:49:56;;;;;;;9.32;4.63;;;;;;;-9.16;97.87;95693.50;5108158;27;20043;-47
2022/03/11 03:52:23;;;;;;;13.15;6.40;;;;;;;-9.17;98.15;95691.88;5108074;27;20417;-47
2022/03/11 03:54:50;;;;;;;6.85;4.60;;;;;;;-9.18;98.80;95700.34;5112582;27;20055;-47
2022/03/11 03:57:17;;;;;;;13.07;7.75;;;;;;;-9.16;98.52;95693.50;5113234;27;20047;-47
2022/03/11 03:59:43;;;;;;;14.27;6.65;;;;;;;-9.20;98.84;95702.16;5106524;27;20064;-49
2022/03/11 04:02:12;;;;;;;14.93;6.07;;;;;;;-9.24;99.67;95703.22;5106832;27;20055;-50
2022/03/11 04:04:39;;;;;;;7.25;4.53;;;;;;;-9.20;100.00;95707.22;5108662;27;20075;-47
2022/03/11 04:07:06;;;;;;;8.48;5.75;;;;;;;-9.25;100.00;95704.13;5107361;27;20039;-49
2022/03/11 04:09:33;;;;;;;5.95;2.47;;;;;;;-9.23;100.00;95712.44;5106868;27;20032;-47
2022/03/11 04:11:59;;;;;;;6.50;3.42;;;;;;;-9.15;100.00;95715.31;5111661;27;20043;-47
2022/03/11 04:14:27;;;;;;;6.32;3.38;;;;;;;-9.19;100.00;95713.06;5107085;27;20077;-47
2022/03/11 04:16:55;;;;;;;9.25;4.55;;;;;;;-9.25;100.00;95720.09;5107268;27;20043;-47
2022/03/11 04:19:22;;;;;;;7.90;4.07;;;;;;;-9.16;100.00;95713.69;5107072;27;20035;-50
2022/03/11 04:21:49;;;;;;;7.05;4.72;;;;;;;-9.16;100.00;95721.28;5112576;27;20504;-47
2022/03/11 04:24:17;;;;;;;3.05;2.55;;;;;;;-9.13;100.00;95722.78;5114234;27;20043;-48
2022/03/11 04:26:45;;;;;;;11.30;5.07;;;;;;;-9.05;100.00;95725.69;5112397;27;20112;-48
2022/03/11 04:29:12;;;;;;;13.77;3.97;;;;;;;-9.14;100.00;95732.09;5106491;27;20039;-48
2022/03/11 04:31:40;;;;;;;15.38;6.53;;;;;;;-9.13;100.00;95723.59;5105585;28;20044;-47
2022/03/11 04:34:07;;;;;;;8.60;5.70;;;;;;;-9.10;100.00;95728.47;5106214;28;20043;-49
2022/03/11 04:36:38;;;;;;;7.50;4.60;;;;;;;-9.01;100.00;95726.34;5109769;28;20096;-47
2022/03/11 04:39:06;;;;;;;13.27;7.68;;;;;;;-8.98;100.00;95726.13;5107646;28;20043;-47
2022/03/11 04:41:34;;;;;;;10.07;6.70;;;;;;;-8.96;100.00;95729.41;5108309;28;20043;-48
2022/03/11 04:44:02;;;;;;;14.98;9.30;;;;;;;-8.95;100.00;95731.00;5111539;28;20134;-47
2022/03/11 04:46:29;;;;;;;12.52;8.68;;;;;;;-9.00;100.00;95712.78;5106701;28;20047;-47
2022/03/11 04:48:56;;;;;;;9.00;5.40;;;;;;;-9.07;100.00;95713.16;5111953;28;20514;-48
2022/03/11 04:51:23;;;;;;;5.88;3.97;;;;;;;-9.05;100.00;95736.59;5109910;28;20054;-48
2022/03/11 04:53:50;;;;;;;7.75;4.88;;;;;;;-9.13;100.00;95728.63;5111296;28;20047;-48
2022/03/11 04:56:17;;;;;;;5.95;3.65;;;;;;;-9.20;100.00;95719.81;5107190;28;20051;-50
2022/03/11 04:58:44;;;;;;;8.00;4.13;;;;;;;-9.14;100.00;95727.03;5106188;28;20047;-47
2022/03/11 05:01:10;;;;;;;11.90;5.68;;;;;;;-9.09;100.00;95735.16;5105692;28;20043;-48
2022/03/11 05:03:37;;;;;;;10.13;4.93;;;;;;;-9.08;100.00;95741.81;5112336;28;20151;-48
2022/03/11 05:06:09;;;;;;;26.25;12.25;;;;;;;-9.01;100.00;95736.44;5108391;27;20060;-48
2022/03/11 05:08:36;;;;;;;41.42;21.67;;;;;;;-8.96;100.00;95739.50;5109723;27;20061;-47
2022/03/11 05:11:03;;;;;;;14.85;7.78;;;;;;;-8.90;100.00;95744.19;5108302;27;20057;-47
2022/03/11 05:13:30;;;;;;;13.55;7.22;;;;;;;-8.79;100.00;95746.09;5114924;27;20059;-48
2022/03/11 05:15:57;;;;;;;19.35;9.93;;;;;;;-8.69;100.00;95742.94;5111872;27;20060;-47
2022/03/11 05:18:25;;;;;;;13.10;6.85;;;;;;;-8.61;100.00;95739.13;5112638;27;20035;-47
2022/03/11 05:20:52;;;;;;;8.45;4.63;;;;;;;-8.50;100.00;95752.75;5117383;27;20082;-48
2022/03/11 05:23:19;;;;;;;10.35;5.60;;;;;;;-8.36;100.00;95751.88;5112404;27;20043;-49
2022/03/11 05:25:47;;;;;;;8.30;3.95;;;;;;;-8.19;100.00;95755.09;5108605;27;20048;-48
2022/03/11 05:28:13;;;;;;;8.98;4.65;;;;;;;-8.07;100.00;95750.13;5113718;27;20039;-47
2022/03/11 05:30:40;;;;;;;5.78;4.75;;;;;;;-7.86;100.00;95756.50;5110173;27;20035;-48
2022/03/11 05:33:12;;;;;;;17.27;10.45;;;;;;;-7.77;100.00;95750.84;5115239;27;20035;-47
2022/03/11 05:35:41;;;;;;;11.27;6.60;;;;;;;-7.64;100.00;95751.69;5108893;27;20105;-47
2022/03/11 05:38:08;;;;;;;12.73;4.78;;;;;;;-7.56;99.40;95757.09;5113960;27;20046;-48
2022/03/11 05:40:35;;;;;;;7.00;4.60;;;;;;;-7.41;98.56;95764.63;5109930;27;20097;-49
2022/03/11 05:43:01;;;;;;;13.93;6.07;;;;;;;-7.29;97.74;95766.38;5110471;27;20046;-48
2022/03/11 05:45:28;;;;;;;8.95;5.25;;;;;;;-7.22;96.57;95765.09;5109888;27;20506;-52
2022/03/11 05:47:55;;;;;;;5.22;3.72;;;;;;;-7.07;96.23;95754.88;5113731;27;20050;-47
2022/03/11 05:50:22;;;;;;;7.95;5.47;;;;;;;-7.14;93.86;95750.19;5109786;27;20054;-48
2022/03/11 05:52:49;;;;;;;18.33;8.05;;;;;;;-7.04;93.95;95757.19;5114395;27;20092;-48
2022/03/11 05:55:17;;;;;;;23.27;10.65;;;;;;;-6.84;93.91;95766.00;5110330;27;20050;-48
2022/03/11 05:57:44;;;;;;;22.17;12.32;;;;;;;-6.60;94.09;95758.53;5110492;27;20071;-48
2022/03/11 06:00:11;;;;;;;14.60;8.07;;;;;;;-6.42;92.58;95757.28;5108435;27;20802;-48
2022/03/11 06:02:39;;;;;;;6.30;4.82;;;;;;;-6.50;89.71;95762.03;5109760;27;20048;-48
2022/03/11 06:05:10;;;;;;;14.68;6.95;;;;;;;-6.45;89.43;95767.63;5117604;27;20117;-47
2022/03/11 06:07:38;;;;;;;13.75;7.07;;;;;;;-6.32;89.44;95766.78;5110113;27;20436;-47
2022/03/11 06:10:06;;;;;;;14.90;8.30;;;;;;;-6.18;88.98;95771.72;5109931;27;20040;-50
2022/03/11 06:12:34;;;;;;;14.55;8.43;;;;;;;-6.05;87.69;95775.06;5109402;27;20040;-52
2022/03/11 06:15:08;;;;;;;4.85;2.42;;;;;;;-6.03;87.92;95773.22;5109853;27;20455;-51
2022/03/11 06:17:35;;;;;;;9.48;4.90;;;;;;;-6.05;87.84;95775.06;5111129;27;20062;-47
2022/03/11 06:20:05;;;;;;;9.60;5.35;;;;;;;-6.20;88.81;95786.25;5115185;27;20451;-48
2022/03/11 06:22:31;;;;;;;8.85;4.72;;;;;;;-6.19;88.57;95782.81;5114706;27;20040;-47
2022/03/11 06:24:59;;;;;;;18.88;8.55;;;;;;;-6.22;89.37;95788.09;5109911;27;20077;-50
2022/03/11 06:27:26;;;;;;;12.75;8.13;;;;;;;-6.23;89.94;95791.50;5110291;27;20667;-48
2022/03/11 06:29:53;;;;;;;17.85;9.27;;;;;;;-6.16;90.26;95782.56;5112843;27;20523;-47
2022/03/11 06:32:20;;;;;;;12.35;6.53;;;;;;;-6.05;88.58;95785.22;5109900;27;20047;-47
2022/03/11 06:34:48;;;;;;;17.67;10.52;;;;;;;-6.00;89.82;95787.41;5109840;27;20121;-48
2022/03/11 06:37:15;;;;;;;35.55;15.52;;;;;;;-5.87;89.05;95797.50;5111260;27;20044;-47
2022/03/11 06:39:42;;;;;;;25.95;13.63;;;;;;;-5.76;88.88;95790.78;5109487;27;20044;-48
2022/03/11 06:42:10;;;;;;;12.48;4.40;;;;;;;-5.72;86.42;95796.44;5108334;27;20409;-48
2022/03/11 06:44:36;;;;;;;41.90;21.92;;;;;;;-5.82;86.17;95795.47;5109572;27;20044;-47
2022/03/11 06:47:04;;;;;;;18.40;9.68;;;;;;;-5.90;86.34;95802.81;5111112;27;20100;-48
2022/03/11 06:49:32;;;;;;;17.67;10.20;;;;;;;-5.79;86.68;95805.41;5120811;27;20069;-48
2022/03/11 06:51:59;;;;;;;15.25;7.95;;;;;;;-5.60;86.99;95810.81;5113892;27;20130;-50
2022/03/11 06:54:26;;;;;;;22.85;12.50;;;;;;;-5.54;86.50;95803.69;5105415;27;20497;-47
2022/03/11 06:56:53;;;;;;;15.07;8.40;;;;;;;-5.45;86.38;95810.66;5105236;27;20072;-48
2022/03/11 06:59:19;;;;;;;9.15;5.57;;;;;;;-5.24;86.39;95810.84;5101908;27;20040;-48
2022/03/11 07:01:46;;;;;;;24.23;9.32;;;;;;;-5.29;86.91;95807.84;5101245;27;20052;-49
2022/03/11 07:04:17;;;;;;;10.40;5.88;;;;;;;-5.15;86.73;95817.81;5102778;27;20070;-48
2022/03/11 07:06:44;;;;;;;9.48;5.80;;;;;;;-5.14;85.44;95811.03;5103544;27;20382;-47
2022/03/11 07:09:10;;;;;;;15.48;6.25;;;;;;;-5.20;86.65;95813.06;5104071;27;20051;-50
2022/03/11 07:11:37;;;;;;;12.23;6.18;;;;;;;-5.08;86.92;95813.13;5101900;27;20112;-48
2022/03/11 07:14:04;;;;;;;13.57;6.93;;;;;;;-4.83;86.96;95810.41;5108079;27;20047;-47
2022/03/11 07:16:31;;;;;;;12.35;7.25;;;;;;;-4.78;85.53;95811.81;5107260;27;20044;-48
2022/03/11 07:18:58;;;;;;;12.65;6.53;;;;;;;-4.75;85.26;95811.56;5111265;27;20073;-47
2022/03/11 07:21:24;;;;;;;4.22;2.38;;;;;;;-4.73;84.94;95814.84;5109062;27;20032;-51
2022/03/11 07:23:54;;;;;;;13.63;8.65;;;;;;;-4.62;85.05;95812.31;5104245;27;20048;-47
2022/03/11 07:26:21;;;;;;;15.27;7.65;;;;;;;-4.57;84.66;95815.34;5101756;27;20551;-47
2022/03/11 07:28:48;;;;;;;3.67;1.83;;;;;;;-4.38;83.32;95813.97;5100375;27;20048;-49
2022/03/11 07:31:15;;;;;;;15.38;7.55;;;;;;;-4.24;81.79;95821.38;5098983;27;20031;-48
2022/03/11 07:33:42;;;;;;;12.15;5.65;;;;;;;-4.17;77.80;95819.97;5107593;27;20118;-48
2022/03/11 07:36:09;;;;;;;7.25;3.97;;;;;;;-3.97;76.33;95817.66;5107212;27;20051;-47
2022/03/11 07:38:36;;;;;;;9.82;5.43;;;;;;;-3.86;75.35;95820.19;5111166;27;20505;-48
2022/03/11 07:41:03;;;;;;;9.20;4.68;;;;;;;-3.83;74.43;95825.06;5103547;27;20713;-47
2022/03/11 07:43:30;;;;;;;13.90;7.22;;;;;;;-3.61;74.39;95825.97;5100815;27;20089;-48
2022/03/11 07:45:57;;;;;;;8.27;4.75;;;;;;;-3.36;72.82;95822.31;5100453;28;20048;-46
2022/03/11 07:48:23;;;;;;;6.70;3.67;;;;;;;-3.23;69.01;95819.59;5100575;27;20032;-49
2022/03/11 07:50:50;;;;;;;7.88;4.90;;;;;;;-3.01;69.59;95816.94;5105471;27;20136;-48
2022/03/11 07:53:17;;;;;;;15.38;8.70;;;;;;;-2.84;70.39;95817.38;5097781;27;20128;-50
2022/03/11 07:55:44;;;;;;;9.98;5.55;;;;;;;-2.61;70.99;95813.75;5097735;27;20566;-47
2022/03/11 07:58:11;;;;;;;15.02;7.05;;;;;;;-2.39;70.61;95812.00;5094877;27;20101;-47
2022/03/11 08:00:41;;;;;;;7.88;5.13;;;;;;;-2.09;69.93;95815.47;5101843;27;20460;-49
2022/03/11 08:03:08;;;;;;;16.33;6.28;;;;;;;-1.93;67.14;95808.97;5103580;27;20055;-49
2022/03/11 08:05:35;;;;;;;18.95;7.65;;;;;;;-1.71;67.79;95814.81;5102071;27;20116;-49
2022/03/11 08:08:03;;;;;;;16.45;7.10;;;;;;;-1.41;63.22;95813.91;5103139;27;20043;-51
2022/03/11 08:10:33;;;;;;;19.65;8.90;;;;;;;-1.25;61.25;95810.84;5101615;27;20044;-47
2022/03/11 08:13:21;;;;;;;6.18;3.10;;;;;;;-1.88;59.14;95803.44;5099699;27;20512;-49
2022/03/11 08:15:48;;;;;;;8.63;4.10;;;;;;;-1.95;60.20;95807.47;5101485;27;20054;-50
2022/03/11 08:18:15;;;;;;;18.25;8.00;;;;;;;-1.76;60.71;95810.09;5104011;27;20104;-47
2022/03/11 08:20:42;;;;;;;7.45;4.20;;;;;;;-1.83;58.71;95806.44;5105722;27;20043;-51
2022/03/11 08:23:09;;;;;;;8.93;4.70;;;;;;;-1.95;58.52;95807.47;5107722;27;20059;-47
2022/03/11 08:25:36;;;;;;;13.23;5.97;;;;;;;-1.69;59.86;95804.44;5104678;27;20054;-48
2022/03/11 08:28:04;;;;;;;21.98;7.32;;;;;;;-1.29;62.57;95801.03;5105808;27;20139;-47
2022/03/11 08:30:31;;;;;;;14.75;7.95;;;;;;;-1.28;59.44;95779.63;5099455;28;20117;-48
2022/03/11 08:32:58;;;;;;;12.57;8.32;;;;;;;-1.07;57.82;95808.41;5100160;27;20089;-47
2022/03/11 08:35:45;;;;;;;11.32;5.60;;;;;;;-1.38;56.90;95811.09;5104539;27;20512;-49
2022/03/11 08:38:32;;;;;;;9.80;4.97;;;;;;;-1.30;57.49;95799.41;5106090;28;20051;-48
2022/03/11 08:41:00;;;;;;;15.02;6.22;;;;;;;-1.69;57.03;95809.53;5101162;28;20047;-48
2022/03/11 08:43:27;;;;;;;10.02;5.63;;;;;;;-1.51;55.47;95808.00;5101264;28;20158;-47
2022/03/11 08:45:54;;;;;;;9.02;4.55;;;;;;;-1.30;56.18;95801.97;5099018;28;20122;-47
2022/03/11 08:48:20;;;;;;;37.38;13.88;;;;;;;-1.07;54.67;95799.94;5102625;28;20047;-47
2022/03/11 08:50:51;;;;;;;11.27;6.43;;;;;;;-0.86;55.45;95802.38;5101287;28;20052;-49
2022/03/11 08:53:19;;;;;;;11.15;5.45;;;;;;;-0.67;54.89;95810.00;5100105;28;20067;-47
2022/03/11 08:55:45;;;;;;;9.95;5.30;;;;;;;-0.50;54.72;95802.59;5096889;28;20064;-47
2022/03/11 08:58:13;;;;;;;23.02;8.85;;;;;;;-0.24;53.81;95805.34;5097844;28;20420;-48
2022/03/11 09:00:45;;;;;;;7.00;4.30;;;;;;;-0.43;51.81;95808.78;5101566;28;20055;-48
2022/03/11 09:03:12;;;;;;;23.77;9.90;;;;;;;-0.10;53.04;95809.22;5096689;28;20058;-48
2022/03/11 09:05:39;;;;;;;9.63;5.57;;;;;;;-0.21;53.31;95798.19;5103461;28;20147;-51
2022/03/11 09:08:10;;;;;;;7.60;4.93;;;;;;;-0.60;54.15;95798.28;5106537;28;20146;-47
2022/03/11 09:10:37;;;;;;;10.63;5.07;;;;;;;-0.97;54.83;95806.69;5106038;27;20056;-49
2022/03/11 09:13:03;;;;;;;6.38;3.70;;;;;;;-1.77;55.62;95798.25;5100083;28;20064;-47
2022/03/11 09:15:31;;;;;;;11.52;4.53;;;;;;;-1.94;55.81;95806.53;5103921;28;20047;-47
2022/03/11 09:17:58;;;;;;;14.52;6.50;;;;;;;-1.81;56.36;95799.44;5106882;28;20131;-48
2022/03/11 09:20:26;;;;;;;12.68;5.55;;;;;;;-1.45;56.14;95801.53;5102330;28;20051;-49
2022/03/11 09:22:59;;;;;;;9.57;4.68;;;;;;;-1.26;55.31;95795.63;5103594;28;20494;-48
2022/03/11 09:25:26;;;;;;;9.88;6.10;;;;;;;-0.88;55.76;95794.00;5108179;28;20042;-48
2022/03/11 09:27:53;;;;;;;9.57;5.05;;;;;;;-0.52;54.35;95794.22;5102555;28;20105;-48
2022/03/11 09:30:19;;;;;;;8.43;4.75;;;;;;;0.00;52.63;95792.06;5101033;28;20674;-48
2022/03/11 09:32:47;;;;;;;11.57;5.55;;;;;;;0.14;51.07;95795.88;5106027;28;20144;-51
2022/03/11 09:35:15;;;;;;;9.90;5.15;;;;;;;0.43;49.73;95784.66;5101435;28;20128;-48
2022/03/11 09:37:42;;;;;;;12.68;4.65;;;;;;;0.50;48.25;95781.38;5101968;28;20055;-49
2022/03/11 09:40:12;;;;;;;7.47;4.10;;;;;;;0.57;46.08;95792.66;5102697;28;20065;-50
2022/03/11 09:42:39;;;;;;;12.23;6.32;;;;;;;0.41;45.43;95792.50;5106415;28;20046;-48
2022/03/11 09:45:07;;;;;;;12.20;5.57;;;;;;;0.34;47.54;95788.91;5099534;28;20047;-48
2022/03/11 09:47:38;;;;;;;16.17;4.78;;;;;;;0.44;43.38;95792.22;5103588;28;20050;-48
2022/03/11 09:50:06;;;;;;;7.45;3.95;;;;;;;0.51;40.74;95798.38;5089416;28;20052;-50
2022/03/11 09:52:36;;;;;;;11.25;4.15;;;;;;;0.67;40.11;95807.22;5105556;27;20039;-48
2022/03/11 09:55:07;;;;;;;8.40;3.78;;;;;;;0.44;37.17;95799.91;5109609;27;20082;-48
2022/03/11 09:57:34;;;;;;;6.45;3.58;;;;;;;0.36;39.61;95787.00;5110158;27;20485;-48
2022/03/11 10:00:01;;;;;;;7.30;4.05;;;;;;;0.53;40.03;95791.34;5108564;27;20100;-49
2022/03/11 10:02:41;;;;;;;4.10;2.35;;;;;;;0.71;37.48;95793.13;5109379;27;20052;-47
2022/03/11 10:05:08;;;;;;;6.18;3.38;;;;;;;0.90;38.95;95793.00;5110950;27;20454;-48
2022/03/11 10:08:07;;;;;;;4.53;2.83;;;;;;;0.80;38.22;95797.38;5114572;27;20457;-47
2022/03/11 10:10:35;;;;;;;3.15;2.05;;;;;;;1.07;37.10;95793.13;5106551;27;20045;-47
2022/03/11 10:13:10;;;;;;;4.60;2.70;;;;;;;1.11;37.12;95789.31;5111198;27;20055;-48
2022/03/11 10:15:39;;;;;;;3.17;2.17;;;;;;;1.50;37.93;95783.81;5107686;27;20100;-49
2022/03/11 10:18:13;;;;;;;5.85;3.40;;;;;;;1.56;34.12;95772.13;5107205;27;20051;-48
2022/03/11 10:20:40;;;;;;;6.75;3.35;;;;;;;1.62;36.93;95774.91;5108974;27;20115;-49
2022/03/11 10:23:11;;;;;;;2.72;1.50;;;;;;;1.63;34.88;95773.94;5118080;27;20469;-48
2022/03/11 10:25:38;;;;;;;5.68;2.70;;;;;;;1.25;36.26;95770.81;5109847;27;20489;-47
2022/03/11 10:28:12;;;;;;;5.63;3.03;;;;;;;1.31;36.82;95748.88;5110293;27;20054;-49
2022/03/11 10:30:44;;;;;;;5.25;2.85;;;;;;;1.68;36.63;95769.16;5108976;27;20086;-49
2022/03/11 10:33:14;;;;;;;4.35;2.33;;;;;;;1.45;35.68;95770.63;5112900;27;20398;-50
2022/03/11 10:35:47;;;;;;;4.07;2.30;;;;;;;1.18;35.86;95758.72;5110534;27;20572;-48
2022/03/11 10:38:20;;;;;;;4.65;2.67;;;;;;;1.09;35.29;95760.44;5111208;27;20493;-48
2022/03/11 10:40:58;;;;;;;4.05;2.47;;;;;;;1.18;36.36;95759.53;5109085;27;20043;-48
2022/03/11 10:43:31;;;;;;;8.25;3.67;;;;;;;1.04;37.28;95763.44;5113840;27;20052;-49
2022/03/11 10:46:01;;;;;;;7.15;4.38;;;;;;;0.99;37.51;95754.56;5109085;27;20062;-48
2022/03/11 10:48:41;;;;;;;7.28;3.75;;;;;;;1.12;36.16;95760.13;5109516;27;20498;-47
2022/03/11 10:51:32;;;;;;;;;;;;;;;1.28;36.39;95757.69;5109527;27;20104;-47
2022/03/11 10:54:01;;;;;;;3.22;2.00;;;;;;;1.31;35.76;95749.69;5107876;27;19976;-48
2022/03/11 10:56:39;;;;;;;16.75;3.60;;;;;;;1.07;35.57;95747.75;5107502;27;20044;-50
2022/03/11 10:59:13;;;;;;;4.50;2.22;;;;;;;1.23;36.00;95752.19;5109595;27;20052;-49
2022/03/11 11:01:43;;;;;;;4.97;3.50;;;;;;;0.89;35.26;95759.78;5109013;27;20043;-47
2022/03/11 11:04:12;;;;;;;10.23;4.50;;;;;;;0.90;35.57;95746.81;5107978;27;20051;-49
2022/03/11 11:06:40;;;;;;;3.75;2.40;;;;;;;1.03;36.06;95743.06;5109593;27;20064;-49
2022/03/11 11:09:09;;;;;;;10.90;3.40;;;;;;;0.88;37.04;95741.03;5108839;27;20428;-48
2022/03/11 11:11:37;;;;;;;4.55;2.35;;;;;;;1.01;36.14;95737.25;5112834;27;20039;-47
2022/03/11 11:14:07;;;;;;;2.70;1.90;;;;;;;0.57;37.97;95733.69;5109332;27;20043;-48
2022/03/11 11:16:39;;;;;;;14.93;5.40;;;;;;;0.02;39.04;95744.06;5109090;27;20523;-48
2022/03/11 11:19:19;;;;;;;12.93;6.80;;;;;;;-0.11;42.08;95735.88;5108618;27;20046;-47
2022/03/11 11:21:48;;;;;;;6.32;2.92;;;;;;;-0.51;41.92;95729.31;5109752;27;20069;-47
2022/03/11 11:24:20;;;;;;;7.53;4.60;;;;;;;-0.48;42.53;95739.28;5109049;27;20413;-47
2022/03/11 11:26:49;;;;;;;11.30;4.90;;;;;;;-0.43;42.41;95737.09;5108591;27;20040;-48
2022/03/11 11:29:19;;;;;;;8.57;4.65;;;;;;;-0.48;41.30;95734.16;5108544;27;20371;-47
2022/03/11 11:31:47;;;;;;;7.47;4.50;;;;;;;-0.28;41.40;95735.69;5106325;27;20505;-48
2022/03/11 11:34:26;;;;;;;10.90;3.72;;;;;;;-0.03;40.65;95733.41;5105463;27;20040;-47